sensor_id;sensor_type;location;lat;lon;timestamp;pressure;altitude;pressure_sealevel;temperature;humidity
26436;BME280;15351;52.408;16.826;2023-04-20T00:02:11;101324.52;;;10.65;79.09
26436;BME280;15351;52.408;16.826;2023-04-20T00:05:05;101323.98;;;10.63;79.05
26436;BME280;15351;52.408;16.826;2023-04-20T00:08:21;101322.02;;;10.63;79.27
26436;BME280;15351;52.408;16.826;2023-04-20T00:11:29;101311.08;;;10.68;79.26
26436;BME280;15351;52.408;16.826;2023-04-20T00:14:21;101313.54;;;10.72;79.14
26436;BME280;15351;52.408;16.826;2023-04-20T00:17:11;101309.77;;;10.72;78.97
26436;BME280;15351;52.408;16.826;2023-04-20T00:19:51;101302.97;;;10.75;79.18
26436;BME280;15351;52.408;16.826;2023-04-20T00:22:40;101302.73;;;10.78;79.20
26436;BME280;15351;52.408;16.826;2023-04-20T00:25:34;101305.30;;;10.81;78.90
26436;BME280;15351;52.408;16.826;2023-04-20T00:28:01;101308.27;;;10.81;78.89
26436;BME280;15351;52.408;16.826;2023-04-20T00:30:27;101311.07;;;10.80;78.69
26436;BME280;15351;52.408;16.826;2023-04-20T00:33:40;101315.17;;;10.82;78.84
26436;BME280;15351;52.408;16.826;2023-04-20T00:36:13;101312.52;;;10.85;78.70
26436;BME280;15351;52.408;16.826;2023-04-20T00:39:05;101311.48;;;10.88;78.66
26436;BME280;15351;52.408;16.826;2023-04-20T00:41:32;101312.09;;;10.84;78.41
26436;BME280;15351;52.408;16.826;2023-04-20T00:44:35;101314.36;;;10.80;78.39
26436;BME280;15351;52.408;16.826;2023-04-20T00:47:07;101314.67;;;10.80;78.82
26436;BME280;15351;52.408;16.826;2023-04-20T00:49:36;101310.53;;;10.85;78.76
26436;BME280;15351;52.408;16.826;2023-04-20T00:52:03;101309.42;;;10.85;78.60
26436;BME280;15351;52.408;16.826;2023-04-20T00:55:10;101303.99;;;10.85;78.46
26436;BME280;15351;52.408;16.826;2023-04-20T00:57:39;101301.25;;;10.84;78.56
26436;BME280;15351;52.408;16.826;2023-04-20T01:00:15;101299.61;;;10.81;78.66
26436;BME280;15351;52.408;16.826;2023-04-20T01:02:56;101298.36;;;10.81;78.63
26436;BME280;15351;52.408;16.826;2023-04-20T01:05:23;101296.23;;;10.76;78.42
26436;BME280;15351;52.408;16.826;2023-04-20T01:08:04;101292.74;;;10.70;78.59
26436;BME280;15351;52.408;16.826;2023-04-20T01:10:44;101292.00;;;10.68;78.76
26436;BME280;15351;52.408;16.826;2023-04-20T01:13:22;101292.00;;;10.70;78.97
26436;BME280;15351;52.408;16.826;2023-04-20T01:15:58;101294.00;;;10.70;78.85
26436;BME280;15351;52.408;16.826;2023-04-20T01:18:35;101294.77;;;10.69;78.69
26436;BME280;15351;52.408;16.826;2023-04-20T01:21:31;101302.40;;;10.70;78.97
26436;BME280;15351;52.408;16.826;2023-04-20T01:24:14;101298.34;;;10.73;79.04
26436;BME280;15351;52.408;16.826;2023-04-20T01:26:42;101290.20;;;10.72;78.89
26436;BME280;15351;52.408;16.826;2023-04-20T01:32:35;101294.98;;;10.76;78.73
26436;BME280;15351;52.408;16.826;2023-04-20T01:35:26;101294.67;;;10.75;78.67
26436;BME280;15351;52.408;16.826;2023-04-20T01:38:50;101289.53;;;10.73;78.68
26436;BME280;15351;52.408;16.826;2023-04-20T01:45:34;101283.15;;;10.63;78.81
26436;BME280;15351;52.408;16.826;2023-04-20T01:48:38;101288.88;;;10.64;78.87
26436;BME280;15351;52.408;16.826;2023-04-20T01:51:20;101295.31;;;10.69;79.07
26436;BME280;15351;52.408;16.826;2023-04-20T01:57:12;101282.27;;;10.70;78.88
26436;BME280;15351;52.408;16.826;2023-04-20T01:59:50;101280.36;;;10.69;78.97
26436;BME280;15351;52.408;16.826;2023-04-20T02:02:20;101283.76;;;10.71;78.85
26436;BME280;15351;52.408;16.826;2023-04-20T02:04:50;101284.73;;;10.72;78.61
26436;BME280;15351;52.408;16.826;2023-04-20T02:07:19;101288.94;;;10.70;78.67
26436;BME280;15351;52.408;16.826;2023-04-20T02:09:57;101299.31;;;10.72;78.91
26436;BME280;15351;52.408;16.826;2023-04-20T02:15:43;101295.83;;;10.71;78.84
26436;BME280;15351;52.408;16.826;2023-04-20T02:18:22;101294.81;;;10.71;78.84
26436;BME280;15351;52.408;16.826;2023-04-20T02:20:53;101299.95;;;10.71;78.80
26436;BME280;15351;52.408;16.826;2023-04-20T02:23:30;101303.45;;;10.72;78.96
26436;BME280;15351;52.408;16.826;2023-04-20T02:26:07;101300.13;;;10.73;78.99
26436;BME280;15351;52.408;16.826;2023-04-20T02:28:37;101300.70;;;10.73;78.86
26436;BME280;15351;52.408;16.826;2023-04-20T02:31:05;101294.61;;;10.67;78.96
26436;BME280;15351;52.408;16.826;2023-04-20T02:33:31;101298.95;;;10.72;78.90
26436;BME280;15351;52.408;16.826;2023-04-20T02:36:01;101299.91;;;10.75;78.75
26436;BME280;15351;52.408;16.826;2023-04-20T02:38:42;101294.93;;;10.78;78.82
26436;BME280;15351;52.408;16.826;2023-04-20T02:41:08;101297.05;;;10.77;78.86
26436;BME280;15351;52.408;16.826;2023-04-20T02:43:47;101295.71;;;10.74;78.74
26436;BME280;15351;52.408;16.826;2023-04-20T02:46:20;101293.45;;;10.70;78.74
26436;BME280;15351;52.408;16.826;2023-04-20T02:48:47;101289.95;;;10.63;78.75
26436;BME280;15351;52.408;16.826;2023-04-20T02:51:20;101287.85;;;10.59;78.93
26436;BME280;15351;52.408;16.826;2023-04-20T02:53:54;101284.56;;;10.57;79.23
26436;BME280;15351;52.408;16.826;2023-04-20T02:56:38;101290.01;;;10.58;79.08
26436;BME280;15351;52.408;16.826;2023-04-20T02:59:25;101287.89;;;10.59;79.09
26436;BME280;15351;52.408;16.826;2023-04-20T03:02:38;101281.49;;;10.62;79.09
26436;BME280;15351;52.408;16.826;2023-04-20T03:05:15;101285.36;;;10.61;79.30
26436;BME280;15351;52.408;16.826;2023-04-20T03:07:54;101290.79;;;10.61;78.92
26436;BME280;15351;52.408;16.826;2023-04-20T03:10:53;101285.11;;;10.58;79.09
26436;BME280;15351;52.408;16.826;2023-04-20T03:13:23;101291.80;;;10.60;79.22
26436;BME280;15351;52.408;16.826;2023-04-20T03:15:56;101291.44;;;10.63;79.15
26436;BME280;15351;52.408;16.826;2023-04-20T03:18:56;101296.98;;;10.64;78.96
26436;BME280;15351;52.408;16.826;2023-04-20T03:21:39;101291.94;;;10.60;79.11
26436;BME280;15351;52.408;16.826;2023-04-20T03:24:06;101288.83;;;10.59;79.05
26436;BME280;15351;52.408;16.826;2023-04-20T03:26:37;101286.45;;;10.61;79.25
26436;BME280;15351;52.408;16.826;2023-04-20T03:29:11;101286.18;;;10.62;79.08
26436;BME280;15351;52.408;16.826;2023-04-20T03:31:42;101289.98;;;10.57;78.99
26436;BME280;15351;52.408;16.826;2023-04-20T03:34:14;101294.11;;;10.53;79.02
26436;BME280;15351;52.408;16.826;2023-04-20T03:36:45;101298.65;;;10.56;79.41
26436;BME280;15351;52.408;16.826;2023-04-20T03:39:47;101300.92;;;10.64;79.38
26436;BME280;15351;52.408;16.826;2023-04-20T03:42:15;101304.42;;;10.66;78.95
26436;BME280;15351;52.408;16.826;2023-04-20T03:44:44;101310.32;;;10.65;79.01
26436;BME280;15351;52.408;16.826;2023-04-20T03:47:50;101305.45;;;10.65;79.00
26436;BME280;15351;52.408;16.826;2023-04-20T03:50:41;101303.72;;;10.66;79.06
26436;BME280;15351;52.408;16.826;2023-04-20T03:53:27;101307.64;;;10.67;78.92
26436;BME280;15351;52.408;16.826;2023-04-20T03:58:57;101302.56;;;10.60;78.92
26436;BME280;15351;52.408;16.826;2023-04-20T04:01:25;101297.13;;;10.57;79.22
26436;BME280;15351;52.408;16.826;2023-04-20T04:03:52;101299.23;;;10.56;79.21
26436;BME280;15351;52.408;16.826;2023-04-20T04:06:19;101296.17;;;10.54;79.17
26436;BME280;15351;52.408;16.826;2023-04-20T04:08:49;101293.20;;;10.52;79.10
26436;BME280;15351;52.408;16.826;2023-04-20T04:11:16;101288.61;;;10.52;79.23
26436;BME280;15351;52.408;16.826;2023-04-20T04:13:44;101290.61;;;10.54;79.24
26436;BME280;15351;52.408;16.826;2023-04-20T04:16:11;101289.42;;;10.53;79.39
26436;BME280;15351;52.408;16.826;2023-04-20T04:18:43;101283.50;;;10.51;79.21
26436;BME280;15351;52.408;16.826;2023-04-20T04:21:15;101293.07;;;10.53;79.39
26436;BME280;15351;52.408;16.826;2023-04-20T04:23:46;101295.64;;;10.54;79.44
26436;BME280;15351;52.408;16.826;2023-04-20T04:26:33;101297.39;;;10.58;79.50
26436;BME280;15351;52.408;16.826;2023-04-20T04:29:00;101299.40;;;10.61;79.24
26436;BME280;15351;52.408;16.826;2023-04-20T04:31:30;101300.31;;;10.61;79.21
26436;BME280;15351;52.408;16.826;2023-04-20T04:34:04;101297.03;;;10.59;79.37
26436;BME280;15351;52.408;16.826;2023-04-20T04:36:49;101301.89;;;10.63;79.53
26436;BME280;15351;52.408;16.826;2023-04-20T04:39:40;101311.08;;;10.66;79.63
26436;BME280;15351;52.408;16.826;2023-04-20T04:42:13;101311.33;;;10.69;79.59
26436;BME280;15351;52.408;16.826;2023-04-20T04:44:51;101315.70;;;10.72;79.66
26436;BME280;15351;52.408;16.826;2023-04-20T04:47:25;101312.64;;;10.77;79.98
26436;BME280;15351;52.408;16.826;2023-04-20T04:49:51;101315.88;;;10.82;79.93
26436;BME280;15351;52.408;16.826;2023-04-20T04:52:34;101313.86;;;10.84;79.91
26436;BME280;15351;52.408;16.826;2023-04-20T04:55:01;101316.51;;;10.86;79.83
26436;BME280;15351;52.408;16.826;2023-04-20T04:57:28;101319.10;;;10.91;80.06
26436;BME280;15351;52.408;16.826;2023-04-20T04:59:56;101318.30;;;10.95;80.08
26436;BME280;15351;52.408;16.826;2023-04-20T05:02:23;101319.23;;;11.00;80.04
26436;BME280;15351;52.408;16.826;2023-04-20T05:05:29;101315.14;;;11.04;79.87
26436;BME280;15351;52.408;16.826;2023-04-20T05:07:59;101314.39;;;11.08;79.76
26436;BME280;15351;52.408;16.826;2023-04-20T05:10:29;101317.79;;;11.06;79.86
26436;BME280;15351;52.408;16.826;2023-04-20T05:12:59;101315.30;;;11.08;79.82
26436;BME280;15351;52.408;16.826;2023-04-20T05:15:27;101316.42;;;11.09;79.82
26436;BME280;15351;52.408;16.826;2023-04-20T05:17:56;101320.05;;;11.12;79.67
26436;BME280;15351;52.408;16.826;2023-04-20T05:20:34;101322.08;;;11.14;79.50
26436;BME280;15351;52.408;16.826;2023-04-20T05:23:08;101325.94;;;11.15;79.54
26436;BME280;15351;52.408;16.826;2023-04-20T05:25:37;101324.39;;;11.17;79.72
26436;BME280;15351;52.408;16.826;2023-04-20T05:28:38;101321.87;;;11.19;79.65
26436;BME280;15351;52.408;16.826;2023-04-20T05:31:06;101319.66;;;11.21;79.74
26436;BME280;15351;52.408;16.826;2023-04-20T05:33:34;101317.08;;;11.24;79.96
26436;BME280;15351;52.408;16.826;2023-04-20T05:36:42;101317.85;;;11.27;79.89
26436;BME280;15351;52.408;16.826;2023-04-20T05:39:17;101316.98;;;11.36;80.06
26436;BME280;15351;52.408;16.826;2023-04-20T05:42:27;101317.77;;;11.40;79.94
26436;BME280;15351;52.408;16.826;2023-04-20T05:44:54;101312.81;;;11.45;80.10
26436;BME280;15351;52.408;16.826;2023-04-20T05:47:24;101314.11;;;11.48;80.06
26436;BME280;15351;52.408;16.826;2023-04-20T05:50:05;101321.60;;;11.53;80.29
26436;BME280;15351;52.408;16.826;2023-04-20T06:02:59;101319.73;;;11.68;79.96
26436;BME280;15351;52.408;16.826;2023-04-20T06:05:27;101326.67;;;11.72;79.98
26436;BME280;15351;52.408;16.826;2023-04-20T06:08:04;101324.13;;;11.74;80.05
26436;BME280;15351;52.408;16.826;2023-04-20T06:11:19;101332.73;;;11.80;80.16
26436;BME280;15351;52.408;16.826;2023-04-20T06:14:08;101332.20;;;11.83;80.08
26436;BME280;15351;52.408;16.826;2023-04-20T06:17:12;101329.89;;;11.91;80.33
26436;BME280;15351;52.408;16.826;2023-04-20T06:19:38;101330.93;;;11.96;80.08
26436;BME280;15351;52.408;16.826;2023-04-20T06:25:13;101330.10;;;12.06;80.32
26436;BME280;15351;52.408;16.826;2023-04-20T06:27:44;101326.77;;;12.13;80.31
26436;BME280;15351;52.408;16.826;2023-04-20T06:30:14;101325.34;;;12.19;80.16
26436;BME280;15351;52.408;16.826;2023-04-20T06:32:43;101325.94;;;12.20;79.86
26436;BME280;15351;52.408;16.826;2023-04-20T06:35:28;101327.02;;;12.23;80.03
26436;BME280;15351;52.408;16.826;2023-04-20T06:38:34;101326.05;;;12.29;80.00
26436;BME280;15351;52.408;16.826;2023-04-20T06:41:32;101336.50;;;12.39;79.82
26436;BME280;15351;52.408;16.826;2023-04-20T06:44:04;101336.64;;;12.45;79.47
26436;BME280;15351;52.408;16.826;2023-04-20T06:46:54;101338.85;;;12.50;79.18
26436;BME280;15351;52.408;16.826;2023-04-20T06:49:24;101336.95;;;12.54;79.09
26436;BME280;15351;52.408;16.826;2023-04-20T06:52:53;101337.66;;;12.57;78.60
26436;BME280;15351;52.408;16.826;2023-04-20T06:58:52;101332.68;;;12.61;78.49
26436;BME280;15351;52.408;16.826;2023-04-20T07:05:12;101324.77;;;12.77;78.47
26436;BME280;15351;52.408;16.826;2023-04-20T07:07:43;101332.42;;;12.90;78.25
26436;BME280;15351;52.408;16.826;2023-04-20T07:10:18;101333.79;;;12.98;77.87
26436;BME280;15351;52.408;16.826;2023-04-20T07:12:48;101331.94;;;13.04;77.95
26436;BME280;15351;52.408;16.826;2023-04-20T07:15:19;101334.66;;;13.10;77.67
26436;BME280;15351;52.408;16.826;2023-04-20T07:17:49;101335.11;;;13.16;77.38
26436;BME280;15351;52.408;16.826;2023-04-20T07:21:00;101334.11;;;13.26;77.05
26436;BME280;15351;52.408;16.826;2023-04-20T07:32:49;101350.91;;;14.20;76.32
26436;BME280;15351;52.408;16.826;2023-04-20T07:36:02;101349.20;;;14.51;75.37
26436;BME280;15351;52.408;16.826;2023-04-20T07:38:31;101347.16;;;14.84;75.16
26436;BME280;15351;52.408;16.826;2023-04-20T07:41:22;101350.58;;;15.15;75.34
26436;BME280;15351;52.408;16.826;2023-04-20T07:44:12;101350.98;;;15.47;74.45
26436;BME280;15351;52.408;16.826;2023-04-20T07:46:42;101356.27;;;15.67;73.21
26436;BME280;15351;52.408;16.826;2023-04-20T07:49:27;101357.94;;;15.75;72.28
26436;BME280;15351;52.408;16.826;2023-04-20T07:52:17;101361.70;;;15.74;71.90
26436;BME280;15351;52.408;16.826;2023-04-20T07:54:45;101360.69;;;15.79;72.46
26436;BME280;15351;52.408;16.826;2023-04-20T07:57:52;101363.80;;;15.85;71.51
26436;BME280;15351;52.408;16.826;2023-04-20T08:00:56;101359.25;;;15.92;71.15
26436;BME280;15351;52.408;16.826;2023-04-20T08:03:29;101362.39;;;16.01;70.91
26436;BME280;15351;52.408;16.826;2023-04-20T08:06:12;101360.46;;;16.11;70.96
26436;BME280;15351;52.408;16.826;2023-04-20T08:11:33;101367.38;;;16.32;71.06
26436;BME280;15351;52.408;16.826;2023-04-20T08:14:03;101364.22;;;16.49;71.00
26436;BME280;15351;52.408;16.826;2023-04-20T08:23:26;101363.13;;;17.09;70.14
26436;BME280;15351;52.408;16.826;2023-04-20T08:25:54;101361.82;;;17.23;69.95
26436;BME280;15351;52.408;16.826;2023-04-20T08:32:08;101366.06;;;17.51;68.26
26436;BME280;15351;52.408;16.826;2023-04-20T08:34:34;101365.77;;;17.61;68.04
26436;BME280;15351;52.408;16.826;2023-04-20T08:37:52;101365.60;;;17.75;67.46
26436;BME280;15351;52.408;16.826;2023-04-20T08:40:24;101365.58;;;17.88;66.55
26436;BME280;15351;52.408;16.826;2023-04-20T08:43:33;101365.77;;;17.93;65.74
26436;BME280;15351;52.408;16.826;2023-04-20T08:46:25;101367.09;;;18.02;66.13
26436;BME280;15351;52.408;16.826;2023-04-20T08:49:21;101365.58;;;18.09;64.84
26436;BME280;15351;52.408;16.826;2023-04-20T08:51:54;101363.73;;;18.15;65.17
26436;BME280;15351;52.408;16.826;2023-04-20T08:54:34;101362.73;;;18.26;65.36
26436;BME280;15351;52.408;16.826;2023-04-20T08:57:02;101366.68;;;18.37;65.74
26436;BME280;15351;52.408;16.826;2023-04-20T08:59:56;101361.28;;;18.50;65.81
26436;BME280;15351;52.408;16.826;2023-04-20T09:02:51;101359.91;;;18.62;64.84
26436;BME280;15351;52.408;16.826;2023-04-20T09:05:31;101363.66;;;18.73;64.49
26436;BME280;15351;52.408;16.826;2023-04-20T09:08:16;101362.74;;;18.80;64.07
26436;BME280;15351;52.408;16.826;2023-04-20T09:10:43;101364.20;;;18.80;63.57
26436;BME280;15351;52.408;16.826;2023-04-20T09:17:18;101358.75;;;19.06;63.17
26436;BME280;15351;52.408;16.826;2023-04-20T09:19:59;101360.40;;;19.10;62.90
26436;BME280;15351;52.408;16.826;2023-04-20T09:22:39;101360.80;;;19.16;62.54
26436;BME280;15351;52.408;16.826;2023-04-20T09:25:16;101357.29;;;19.20;62.07
26436;BME280;15351;52.408;16.826;2023-04-20T09:27:56;101358.31;;;19.23;61.63
26436;BME280;15351;52.408;16.826;2023-04-20T09:30:46;101361.88;;;19.31;61.45
26436;BME280;15351;52.408;16.826;2023-04-20T09:33:32;101369.70;;;19.30;60.25
26436;BME280;15351;52.408;16.826;2023-04-20T09:36:20;101368.23;;;19.19;59.62
26436;BME280;15351;52.408;16.826;2023-04-20T09:39:04;101372.58;;;19.14;59.67
26436;BME280;15351;52.408;16.826;2023-04-20T09:41:35;101372.88;;;19.17;60.34
26436;BME280;15351;52.408;16.826;2023-04-20T09:44:04;101372.08;;;19.21;60.40
26436;BME280;15351;52.408;16.826;2023-04-20T09:46:37;101371.42;;;19.32;60.51
26436;BME280;15351;52.408;16.826;2023-04-20T09:49:06;101369.92;;;19.38;59.94
26436;BME280;15351;52.408;16.826;2023-04-20T09:51:36;101368.16;;;19.48;59.83
26436;BME280;15351;52.408;16.826;2023-04-20T09:54:05;101372.56;;;19.59;59.67
26436;BME280;15351;52.408;16.826;2023-04-20T09:56:34;101374.37;;;19.61;58.52
26436;BME280;15351;52.408;16.826;2023-04-20T09:59:02;101365.19;;;19.58;58.50
26436;BME280;15351;52.408;16.826;2023-04-20T10:01:31;101374.02;;;19.53;58.16
26436;BME280;15351;52.408;16.826;2023-04-20T10:04:28;101376.47;;;19.45;58.20
26436;BME280;15351;52.408;16.826;2023-04-20T10:06:55;101374.38;;;19.37;58.37
26436;BME280;15351;52.408;16.826;2023-04-20T10:09:28;101372.59;;;19.42;58.95
26436;BME280;15351;52.408;16.826;2023-04-20T10:12:07;101371.99;;;19.49;58.67
26436;BME280;15351;52.408;16.826;2023-04-20T10:14:56;101369.42;;;19.48;58.17
26436;BME280;15351;52.408;16.826;2023-04-20T10:17:50;101372.47;;;19.43;57.96
26436;BME280;15351;52.408;16.826;2023-04-20T10:20:33;101369.54;;;19.38;58.25
26436;BME280;15351;52.408;16.826;2023-04-20T10:23:08;101368.15;;;19.28;58.47
26436;BME280;15351;52.408;16.826;2023-04-20T10:25:41;101362.27;;;19.19;58.11
26436;BME280;15351;52.408;16.826;2023-04-20T10:28:24;101364.23;;;19.09;58.05
26436;BME280;15351;52.408;16.826;2023-04-20T10:31:04;101366.34;;;18.96;58.38
26436;BME280;15351;52.408;16.826;2023-04-20T10:34:14;101363.27;;;18.96;58.74
26436;BME280;15351;52.408;16.826;2023-04-20T10:39:49;101360.44;;;18.94;57.79
26436;BME280;15351;52.408;16.826;2023-04-20T10:42:26;101362.91;;;18.90;57.18
26436;BME280;15351;52.408;16.826;2023-04-20T10:48:23;101357.34;;;18.73;56.06
26436;BME280;15351;52.408;16.826;2023-04-20T10:50:54;101355.05;;;18.65;56.24
26436;BME280;15351;52.408;16.826;2023-04-20T10:53:42;101350.25;;;18.58;55.97
26436;BME280;15351;52.408;16.826;2023-04-20T10:56:13;101345.86;;;18.53;56.03
26436;BME280;15351;52.408;16.826;2023-04-20T10:59:09;101347.59;;;18.53;56.43
26436;BME280;15351;52.408;16.826;2023-04-20T11:04:38;101337.61;;;18.50;56.05
26436;BME280;15351;52.408;16.826;2023-04-20T11:07:09;101338.23;;;18.58;56.63
26436;BME280;15351;52.408;16.826;2023-04-20T11:10:13;101336.46;;;18.68;57.11
26436;BME280;15351;52.408;16.826;2023-04-20T11:13:17;101337.79;;;18.79;56.64
26436;BME280;15351;52.408;16.826;2023-04-20T11:16:09;101336.88;;;18.95;56.15
26436;BME280;15351;52.408;16.826;2023-04-20T11:18:53;101338.34;;;19.08;55.37
26436;BME280;15351;52.408;16.826;2023-04-20T11:21:39;101341.70;;;19.09;54.29
26436;BME280;15351;52.408;16.826;2023-04-20T11:24:29;101339.44;;;19.14;54.65
26436;BME280;15351;52.408;16.826;2023-04-20T11:27:04;101340.98;;;19.23;54.25
26436;BME280;15351;52.408;16.826;2023-04-20T11:29:38;101337.79;;;19.25;53.76
26436;BME280;15351;52.408;16.826;2023-04-20T11:32:26;101335.38;;;19.24;53.54
26436;BME280;15351;52.408;16.826;2023-04-20T11:35:09;101337.98;;;19.21;53.54
26436;BME280;15351;52.408;16.826;2023-04-20T11:41:01;101325.42;;;19.20;54.35
26436;BME280;15351;52.408;16.826;2023-04-20T11:43:54;101332.74;;;19.17;54.27
26436;BME280;15351;52.408;16.826;2023-04-20T11:46:28;101327.32;;;19.13;53.86
26436;BME280;15351;52.408;16.826;2023-04-20T11:49:52;101329.17;;;19.11;53.72
26436;BME280;15351;52.408;16.826;2023-04-20T11:52:25;101326.59;;;19.09;53.47
26436;BME280;15351;52.408;16.826;2023-04-20T11:55:19;101327.74;;;19.11;53.69
26436;BME280;15351;52.408;16.826;2023-04-20T11:58:07;101317.23;;;19.04;52.68
26436;BME280;15351;52.408;16.826;2023-04-20T12:03:58;101333.15;;;18.96;52.03
26436;BME280;15351;52.408;16.826;2023-04-20T12:06:53;101334.04;;;18.91;51.93
26436;BME280;15351;52.408;16.826;2023-04-20T12:09:44;101332.55;;;18.88;52.15
26436;BME280;15351;52.408;16.826;2023-04-20T12:12:25;101329.98;;;18.89;52.18
26436;BME280;15351;52.408;16.826;2023-04-20T12:14:55;101329.92;;;18.92;52.34
26436;BME280;15351;52.408;16.826;2023-04-20T12:17:26;101325.23;;;18.99;53.40
26436;BME280;15351;52.408;16.826;2023-04-20T12:20:20;101317.46;;;19.10;53.95
26436;BME280;15351;52.408;16.826;2023-04-20T12:22:56;101322.14;;;19.21;53.76
26436;BME280;15351;52.408;16.826;2023-04-20T12:25:23;101324.16;;;19.23;53.05
26436;BME280;15351;52.408;16.826;2023-04-20T12:27:59;101314.99;;;19.21;53.30
26436;BME280;15351;52.408;16.826;2023-04-20T12:33:44;101315.44;;;19.44;53.24
26436;BME280;15351;52.408;16.826;2023-04-20T12:36:15;101318.98;;;19.45;52.22
26436;BME280;15351;52.408;16.826;2023-04-20T12:38:42;101317.96;;;19.45;52.63
26436;BME280;15351;52.408;16.826;2023-04-20T12:41:13;101314.41;;;19.47;52.71
26436;BME280;15351;52.408;16.826;2023-04-20T12:47:11;101314.24;;;19.35;52.38
26436;BME280;15351;52.408;16.826;2023-04-20T12:50:40;101305.27;;;19.34;52.43
26436;BME280;15351;52.408;16.826;2023-04-20T12:53:12;101307.89;;;19.43;52.76
26436;BME280;15351;52.408;16.826;2023-04-20T12:55:42;101302.92;;;19.47;52.44
26436;BME280;15351;52.408;16.826;2023-04-20T12:58:27;101294.49;;;19.50;52.05
26436;BME280;15351;52.408;16.826;2023-04-20T13:04:05;101293.83;;;19.48;51.53
26436;BME280;15351;52.408;16.826;2023-04-20T13:06:32;101295.08;;;19.54;52.44
26436;BME280;15351;52.408;16.826;2023-04-20T13:09:10;101293.33;;;19.62;52.44
26436;BME280;15351;52.408;16.826;2023-04-20T13:11:49;101290.85;;;19.65;52.17
26436;BME280;15351;52.408;16.826;2023-04-20T13:14:43;101290.21;;;19.67;51.48
26436;BME280;15351;52.408;16.826;2023-04-20T13:17:44;101284.73;;;19.72;51.82
26436;BME280;15351;52.408;16.826;2023-04-20T13:20:14;101285.80;;;19.76;51.73
26436;BME280;15351;52.408;16.826;2023-04-20T13:23:19;101283.88;;;19.81;52.44
26436;BME280;15351;52.408;16.826;2023-04-20T13:25:47;101285.92;;;19.85;52.67
26436;BME280;15351;52.408;16.826;2023-04-20T13:31:16;101287.22;;;19.67;50.95
26436;BME280;15351;52.408;16.826;2023-04-20T13:37:40;101283.98;;;19.47;50.97
26436;BME280;15351;52.408;16.826;2023-04-20T13:41:01;101286.26;;;19.42;51.25
26436;BME280;15351;52.408;16.826;2023-04-20T13:44:07;101281.41;;;19.44;51.63
26436;BME280;15351;52.408;16.826;2023-04-20T13:46:45;101280.68;;;19.48;51.93
26436;BME280;15351;52.408;16.826;2023-04-20T13:53:21;101276.52;;;19.40;51.01
26436;BME280;15351;52.408;16.826;2023-04-20T13:56:25;101279.08;;;19.39;51.34
26436;BME280;15351;52.408;16.826;2023-04-20T13:59:13;101281.81;;;19.36;50.74
26436;BME280;15351;52.408;16.826;2023-04-20T14:02:25;101278.02;;;19.35;50.77
26436;BME280;15351;52.408;16.826;2023-04-20T14:05:13;101273.08;;;19.28;50.25
26436;BME280;15351;52.408;16.826;2023-04-20T14:07:52;101275.52;;;19.24;49.99
26436;BME280;15351;52.408;16.826;2023-04-20T14:10:28;101272.55;;;19.23;49.99
26436;BME280;15351;52.408;16.826;2023-04-20T14:12:56;101268.49;;;19.23;50.01
26436;BME280;15351;52.408;16.826;2023-04-20T14:15:24;101270.30;;;19.23;50.02
26436;BME280;15351;52.408;16.826;2023-04-20T14:18:01;101266.95;;;19.24;49.98
26436;BME280;15351;52.408;16.826;2023-04-20T14:20:45;101267.37;;;19.23;49.59
26436;BME280;15351;52.408;16.826;2023-04-20T14:23:13;101264.38;;;19.21;49.46
26436;BME280;15351;52.408;16.826;2023-04-20T14:25:49;101267.34;;;19.17;49.39
26436;BME280;15351;52.408;16.826;2023-04-20T14:28:24;101261.98;;;19.16;49.59
26436;BME280;15351;52.408;16.826;2023-04-20T14:30:52;101262.11;;;19.16;49.07
26436;BME280;15351;52.408;16.826;2023-04-20T14:33:34;101254.16;;;19.15;48.74
26436;BME280;15351;52.408;16.826;2023-04-20T14:36:08;101248.30;;;19.13;48.38
26436;BME280;15351;52.408;16.826;2023-04-20T14:38:38;101251.73;;;19.12;48.36
26436;BME280;15351;52.408;16.826;2023-04-20T14:41:20;101250.13;;;19.09;48.00
26436;BME280;15351;52.408;16.826;2023-04-20T14:44:04;101244.24;;;19.07;48.24
26436;BME280;15351;52.408;16.826;2023-04-20T14:46:38;101241.34;;;19.05;48.42
26436;BME280;15351;52.408;16.826;2023-04-20T14:49:06;101245.77;;;19.03;48.51
26436;BME280;15351;52.408;16.826;2023-04-20T14:51:33;101250.65;;;19.03;48.90
26436;BME280;15351;52.408;16.826;2023-04-20T14:54:00;101251.03;;;19.05;49.01
26436;BME280;15351;52.408;16.826;2023-04-20T14:56:50;101256.97;;;19.06;49.09
26436;BME280;15351;52.408;16.826;2023-04-20T14:59:18;101254.73;;;19.06;49.32
26436;BME280;15351;52.408;16.826;2023-04-20T15:01:45;101260.66;;;19.04;49.53
26436;BME280;15351;52.408;16.826;2023-04-20T15:04:32;101257.93;;;19.01;49.65
26436;BME280;15351;52.408;16.826;2023-04-20T15:07:11;101263.02;;;18.94;49.79
26436;BME280;15351;52.408;16.826;2023-04-20T15:09:44;101262.45;;;18.88;49.98
26436;BME280;15351;52.408;16.826;2023-04-20T15:12:14;101258.95;;;18.80;50.00
26436;BME280;15351;52.408;16.826;2023-04-20T15:17:54;101253.89;;;18.67;50.41
26436;BME280;15351;52.408;16.826;2023-04-20T15:20:31;101254.35;;;18.65;50.11
26436;BME280;15351;52.408;16.826;2023-04-20T15:23:03;101256.67;;;18.64;50.27
26436;BME280;15351;52.408;16.826;2023-04-20T15:25:32;101254.09;;;18.64;50.55
26436;BME280;15351;52.408;16.826;2023-04-20T15:27:59;101247.83;;;18.65;50.72
26436;BME280;15351;52.408;16.826;2023-04-20T15:30:31;101249.52;;;18.66;50.62